createdAt,value
2022-09-23T00:01:25.595Z,6.70
2022-09-23T00:03:53.606Z,7.67
2022-09-23T00:06:23.606Z,8.03
2022-09-23T00:08:52.886Z,6.90
2022-09-23T00:11:22.910Z,6.33
2022-09-23T00:13:53.418Z,7.37
2022-09-23T00:16:24.724Z,6.60
2022-09-23T00:18:54.090Z,6.90
2022-09-23T00:21:23.551Z,8.80
2022-09-23T00:23:51.690Z,11.27
2022-09-23T00:26:21.550Z,20.40
2022-09-23T00:28:50.557Z,14.40
2022-09-23T00:31:20.740Z,14.77
2022-09-23T00:33:48.906Z,10.50
2022-09-23T00:36:18.246Z,10.23
2022-09-23T00:38:46.868Z,7.70
2022-09-23T00:41:16.310Z,8.43
2022-09-23T00:43:46.812Z,6.93
2022-09-23T00:46:18.721Z,7.90
2022-09-23T00:48:49.286Z,7.80
2022-09-23T00:51:22.783Z,7.13
2022-09-23T00:53:52.398Z,6.50
2022-09-23T00:56:23.042Z,6.40
2022-09-23T00:58:52.306Z,7.20
2022-09-23T01:01:21.488Z,6.27
2022-09-23T01:03:50.869Z,6.37
2022-09-23T01:06:20.461Z,5.40
2022-09-23T01:08:48.955Z,5.60
2022-09-23T01:11:41.227Z,5.73
2022-09-23T01:14:27.237Z,5.53
2022-09-23T01:16:59.907Z,5.50
2022-09-23T01:19:57.034Z,6.00
2022-09-23T01:22:35.810Z,6.97
2022-09-23T01:25:31.621Z,7.13
2022-09-23T01:28:17.220Z,5.73
2022-09-23T01:30:53.050Z,6.60
2022-09-23T01:33:25.594Z,6.63
2022-09-23T01:36:08.375Z,6.50
2022-09-23T01:38:44.768Z,5.57
2022-09-23T01:41:26.449Z,5.77
2022-09-23T01:44:01.693Z,6.17
2022-09-23T01:46:36.551Z,6.53
2022-09-23T01:49:10.731Z,6.40
2022-09-23T01:51:42.981Z,7.10
2022-09-23T01:54:16.490Z,10.23
2022-09-23T01:56:52.406Z,9.23
2022-09-23T01:59:26.379Z,7.53
2022-09-23T02:02:01.914Z,7.30
2022-09-23T02:04:39.702Z,6.97
2022-09-23T02:07:11.738Z,7.33
2022-09-23T02:09:46.321Z,7.50
2022-09-23T02:12:17.402Z,7.97
2022-09-23T02:14:48.593Z,7.43
2022-09-23T02:17:20.254Z,8.00
2022-09-23T02:19:49.338Z,8.03
2022-09-23T02:22:19.792Z,7.13
2022-09-23T02:24:48.164Z,7.10
2022-09-23T02:27:21.109Z,6.77
2022-09-23T02:29:53.964Z,8.30
2022-09-23T02:32:25.237Z,7.40
2022-09-23T02:34:56.984Z,8.07
2022-09-23T02:37:27.552Z,7.00
2022-09-23T02:40:00.686Z,7.40
2022-09-23T02:42:34.752Z,7.53
2022-09-23T02:45:03.137Z,7.57
2022-09-23T02:47:35.528Z,7.37
2022-09-23T02:50:03.893Z,6.27
2022-09-23T02:52:32.329Z,7.47
2022-09-23T02:55:01.602Z,7.50
2022-09-23T02:57:29.988Z,7.17
2022-09-23T02:59:58.485Z,6.53
2022-09-23T03:02:45.708Z,6.77
2022-09-23T03:05:23.907Z,7.67
2022-09-23T03:07:56.765Z,7.90
2022-09-23T03:10:26.488Z,6.43
2022-09-23T03:13:01.295Z,5.87
2022-09-23T03:15:35.485Z,6.67
2022-09-23T03:18:10.156Z,7.20
2022-09-23T03:20:42.675Z,6.80
2022-09-23T03:23:13.480Z,6.23
2022-09-23T03:25:44.740Z,7.00
2022-09-23T03:28:14.298Z,7.07
2022-09-23T03:30:43.557Z,6.67
2022-09-23T03:33:16.688Z,7.63
2022-09-23T03:36:19.471Z,8.60
2022-09-23T03:38:52.806Z,6.50
2022-09-23T03:41:25.120Z,6.67
2022-09-23T03:43:53.447Z,6.47
2022-09-23T03:46:22.320Z,6.57
2022-09-23T03:48:51.963Z,6.30
2022-09-23T03:51:23.756Z,7.37
2022-09-23T03:53:52.300Z,5.87
2022-09-23T03:56:20.979Z,6.87
2022-09-23T03:58:49.294Z,6.10
2022-09-23T04:01:17.692Z,6.80
2022-09-23T04:03:46.005Z,6.77
2022-09-23T04:06:15.763Z,6.70
2022-09-23T04:08:44.027Z,6.70
2022-09-23T04:11:12.619Z,6.13
2022-09-23T04:13:40.938Z,6.20
2022-09-23T04:16:09.259Z,6.37
2022-09-23T04:18:37.607Z,6.30
2022-09-23T04:21:06.150Z,6.20
2022-09-23T04:23:35.724Z,6.17
2022-09-23T04:26:03.958Z,5.77
2022-09-23T04:28:32.178Z,5.20
2022-09-23T04:31:00.758Z,6.90
2022-09-23T04:33:29.075Z,6.40
2022-09-23T04:35:57.474Z,5.57
2022-09-23T04:38:25.866Z,7.20
2022-09-23T04:40:55.786Z,8.07
2022-09-23T04:43:24.338Z,7.20
2022-09-23T04:45:59.789Z,7.33
2022-09-23T04:48:28.278Z,7.17
2022-09-23T04:50:56.302Z,6.40
2022-09-23T04:53:24.282Z,6.43
2022-09-23T04:55:52.278Z,6.20
2022-09-23T04:58:23.073Z,6.60
2022-09-23T05:00:51.127Z,6.47
2022-09-23T05:03:19.174Z,6.23
2022-09-23T05:05:47.111Z,5.83
2022-09-23T05:08:15.314Z,6.93
2022-09-23T05:10:43.287Z,6.73
2022-09-23T05:13:11.185Z,7.13
2022-09-23T05:15:40.474Z,6.10
2022-09-23T05:18:08.499Z,6.40
2022-09-23T05:20:36.429Z,6.53
2022-09-23T05:23:04.422Z,6.00
2022-09-23T05:25:36.306Z,6.67
2022-09-23T05:28:06.845Z,6.90
2022-09-23T05:30:35.028Z,5.77
2022-09-23T05:33:04.446Z,7.17
2022-09-23T05:35:32.370Z,6.57
2022-09-23T05:38:00.334Z,7.37
2022-09-23T05:40:28.312Z,6.50
2022-09-23T05:42:56.458Z,7.13
2022-09-23T05:45:26.816Z,7.37
2022-09-23T05:47:54.966Z,8.20
2022-09-23T05:50:24.378Z,6.97
2022-09-23T05:52:52.365Z,7.10
2022-09-23T05:55:20.482Z,8.63
2022-09-23T05:57:48.379Z,8.10
2022-09-23T06:00:16.628Z,7.53
2022-09-23T06:02:44.658Z,7.20
2022-09-23T06:05:13.632Z,6.63
2022-09-23T06:07:42.886Z,7.33
2022-09-23T06:10:11.069Z,7.87
2022-09-23T06:12:39.041Z,7.80
2022-09-23T06:15:08.292Z,7.47
2022-09-23T06:17:36.209Z,7.57
2022-09-23T06:20:04.488Z,6.80
2022-09-23T06:22:35.408Z,8.07
2022-09-23T06:25:07.428Z,7.80
2022-09-23T06:27:35.306Z,8.63
2022-09-23T06:30:03.551Z,10.73
2022-09-23T06:32:31.475Z,10.73
2022-09-23T06:34:59.654Z,10.47
2022-09-23T06:37:27.953Z,9.87
2022-09-23T06:39:55.944Z,9.80
2022-09-23T06:42:25.300Z,10.37
2022-09-23T06:44:53.252Z,10.00
2022-09-23T06:47:21.173Z,10.40
2022-09-23T06:49:49.161Z,11.30
2022-09-23T06:52:17.424Z,12.07
2022-09-23T06:54:45.498Z,10.93
2022-09-23T06:57:13.508Z,11.47
2022-09-23T06:59:42.908Z,11.30
2022-09-23T07:02:14.296Z,12.40
2022-09-23T07:04:42.334Z,12.03
2022-09-23T07:07:11.513Z,11.87
2022-09-23T07:09:39.504Z,19.10
2022-09-23T07:12:08.222Z,13.90
2022-09-23T07:14:36.088Z,10.23
2022-09-23T07:17:05.738Z,11.37
2022-09-23T07:19:36.194Z,11.50
2022-09-23T07:22:05.129Z,11.10
2022-09-23T07:24:33.718Z,10.50
2022-09-23T07:27:02.102Z,10.97
2022-09-23T07:29:37.525Z,11.43
2022-09-23T07:32:14.260Z,10.80
2022-09-23T07:34:43.172Z,11.53
2022-09-23T07:37:11.343Z,11.53
2022-09-23T07:39:39.810Z,10.03
2022-09-23T07:42:08.062Z,10.50
2022-09-23T07:44:36.236Z,10.70
2022-09-23T07:47:05.123Z,11.17
2022-09-23T07:49:36.785Z,10.60
2022-09-23T07:52:05.473Z,10.80
2022-09-23T07:54:33.543Z,9.73
2022-09-23T07:57:02.058Z,9.27
2022-09-23T07:59:30.014Z,9.07
2022-09-23T08:01:58.214Z,8.87
2022-09-23T08:04:28.205Z,7.20
2022-09-23T08:07:00.122Z,7.60
2022-09-23T08:09:31.810Z,3.37
2022-09-23T08:12:00.035Z,3.47
2022-09-23T08:14:28.092Z,4.33
2022-09-23T08:16:56.903Z,4.00
2022-09-23T08:19:25.089Z,3.83
2022-09-23T08:21:55.744Z,3.87
2022-09-23T08:24:26.472Z,3.23
2022-09-23T08:26:55.380Z,3.20
2022-09-23T08:29:24.888Z,2.20
2022-09-23T08:31:53.655Z,2.27
2022-09-23T08:34:23.491Z,2.07
2022-09-23T08:36:52.413Z,1.90
2022-09-23T08:39:21.663Z,1.97
2022-09-23T08:42:08.207Z,2.10
2022-09-23T08:44:48.767Z,2.20
2022-09-23T08:47:22.237Z,2.60
2022-09-23T08:49:59.257Z,2.13
2022-09-23T08:52:33.813Z,2.20
2022-09-23T08:55:03.261Z,2.27
2022-09-23T08:57:44.213Z,1.90
2022-09-23T09:00:20.234Z,2.87
2022-09-23T09:02:49.278Z,2.10
2022-09-23T09:05:23.274Z,2.20
2022-09-23T09:07:51.247Z,2.17
2022-09-23T09:10:23.326Z,1.40
2022-09-23T09:13:04.473Z,10.67
2022-09-23T09:15:32.972Z,4.20
2022-09-23T09:18:07.690Z,2.30
2022-09-23T09:20:41.299Z,5.83
2022-09-23T09:23:21.872Z,1.50
2022-09-23T09:25:51.982Z,1.90
2022-09-23T09:28:30.907Z,1.30
2022-09-23T09:31:02.493Z,1.40
2022-09-23T09:33:38.074Z,1.00
2022-09-23T09:36:15.783Z,0.90
2022-09-23T09:38:43.806Z,1.37
2022-09-23T09:41:17.030Z,1.60
2022-09-23T09:43:52.364Z,1.17
2022-09-23T09:46:45.998Z,1.43
2022-09-23T09:49:24.123Z,1.27
2022-09-23T09:52:13.381Z,1.10
2022-09-23T09:54:41.418Z,1.30
2022-09-23T09:57:18.560Z,1.50
2022-09-23T09:59:47.920Z,1.50
2022-09-23T10:02:27.421Z,1.30
2022-09-23T10:05:01.446Z,1.10
2022-09-23T10:07:31.838Z,1.57
2022-09-23T10:10:31.412Z,1.80
2022-09-23T10:13:15.572Z,1.40
2022-09-23T10:15:45.875Z,1.40
2022-09-23T10:18:29.554Z,1.20
2022-09-23T10:21:08.127Z,3.37
2022-09-23T10:23:41.287Z,2.33
2022-09-23T10:26:10.236Z,1.60
2022-09-23T10:28:46.355Z,1.20
2022-09-23T10:31:17.740Z,1.60
2022-09-23T10:33:50.469Z,1.13
2022-09-23T10:36:19.512Z,1.03
2022-09-23T10:38:50.385Z,0.90
2022-09-23T10:41:48.864Z,1.10
2022-09-23T10:44:47.023Z,1.07
2022-09-23T10:47:28.305Z,1.00
2022-09-23T10:50:14.787Z,1.03
2022-09-23T10:52:54.461Z,1.17
2022-09-23T10:55:36.825Z,0.83
2022-09-23T10:58:52.638Z,1.10
2022-09-23T11:01:32.066Z,1.00
2022-09-23T11:04:44.539Z,1.07
2022-09-23T11:07:21.540Z,1.30
2022-09-23T11:10:41.888Z,1.20
2022-09-23T11:13:10.638Z,1.47
2022-09-23T11:15:48.116Z,1.13
2022-09-23T11:18:48.812Z,1.17
2022-09-23T11:21:41.549Z,1.00
2022-09-23T11:24:31.223Z,1.30
2022-09-23T11:27:09.529Z,1.30
2022-09-23T11:30:04.328Z,1.50
2022-09-23T11:33:04.982Z,0.80
2022-09-23T11:35:37.688Z,1.43
2022-09-23T11:38:13.067Z,0.90
2022-09-23T11:40:45.513Z,0.93
2022-09-23T11:43:21.723Z,0.90
2022-09-23T11:45:56.496Z,0.98
2022-09-23T11:48:31.136Z,1.13
2022-09-23T11:51:02.811Z,1.15
2022-09-23T11:53:39.173Z,1.13
2022-09-23T11:56:13.778Z,1.10
2022-09-23T11:58:53.175Z,1.00
2022-09-23T12:01:37.591Z,1.10
2022-09-23T12:04:19.091Z,0.85
2022-09-23T12:06:53.762Z,0.73
2022-09-23T12:09:53.834Z,0.88
2022-09-23T12:15:20.362Z,0.82
2022-09-23T12:18:35.912Z,0.90
2022-09-23T12:21:49.257Z,0.90
2022-09-23T12:24:47.895Z,0.90
2022-09-23T12:27:29.194Z,0.93
2022-09-23T12:30:01.020Z,1.00
2022-09-23T12:32:29.739Z,1.00
2022-09-23T12:34:57.851Z,0.90
2022-09-23T12:37:29.434Z,1.10
2022-09-23T12:40:03.226Z,1.03
2022-09-23T12:42:32.931Z,1.00
2022-09-23T12:45:42.475Z,1.10
2022-09-23T12:48:43.266Z,1.07
2022-09-23T12:51:22.093Z,1.20
2022-09-23T12:53:58.537Z,0.77
2022-09-23T12:56:58.685Z,1.00
2022-09-23T12:59:30.880Z,1.10
2022-09-23T13:02:11.281Z,0.90
2022-09-23T13:05:09.448Z,0.90
2022-09-23T13:07:45.431Z,0.90
2022-09-23T13:10:19.277Z,0.80
2022-09-23T13:12:48.407Z,0.87
2022-09-23T13:15:25.096Z,1.17
2022-09-23T13:17:53.141Z,1.17
2022-09-23T13:20:36.535Z,1.00
2022-09-23T13:23:26.354Z,1.60
2022-09-23T13:25:57.251Z,1.10
2022-09-23T13:28:36.770Z,1.33
2022-09-23T13:31:13.750Z,1.10
2022-09-23T13:33:44.978Z,1.00
2022-09-23T13:36:15.135Z,1.17
2022-09-23T13:38:43.310Z,1.25
2022-09-23T13:41:16.226Z,1.35
2022-09-23T13:43:46.377Z,1.13
2022-09-23T13:46:20.049Z,1.10
2022-09-23T13:48:49.774Z,1.80
2022-09-23T13:51:24.539Z,1.05
2022-09-23T13:53:56.850Z,0.90
2022-09-23T13:56:26.443Z,0.88
2022-09-23T13:58:55.876Z,0.70
2022-09-23T14:01:32.289Z,0.70
2022-09-23T14:04:01.067Z,1.00
2022-09-23T14:06:31.736Z,1.25
2022-09-23T14:09:02.472Z,1.02
2022-09-23T14:11:33.079Z,1.00
2022-09-23T14:14:07.095Z,0.65
2022-09-23T14:16:40.789Z,0.90
2022-09-23T14:19:16.775Z,0.90
2022-09-23T14:21:44.703Z,0.80
2022-09-23T14:24:23.330Z,0.90
2022-09-23T14:26:54.220Z,0.80
2022-09-23T14:29:26.071Z,1.00
2022-09-23T14:31:58.118Z,0.70
2022-09-23T14:34:46.692Z,1.00
2022-09-23T14:37:43.834Z,1.00
2022-09-23T14:40:15.890Z,1.02
2022-09-23T14:42:47.462Z,0.80
2022-09-23T14:45:19.351Z,0.90
2022-09-23T14:47:51.587Z,1.20
2022-09-23T14:50:39.974Z,0.93
2022-09-23T14:53:33.820Z,1.00
2022-09-23T14:56:17.425Z,0.80
2022-09-23T14:58:54.346Z,1.02
2022-09-23T15:01:37.147Z,0.88
2022-09-23T15:04:16.199Z,0.80
2022-09-23T15:06:48.388Z,0.80
2022-09-23T15:09:23.663Z,1.20
2022-09-23T15:11:58.110Z,0.90
2022-09-23T15:14:44.917Z,1.30
2022-09-23T15:17:25.815Z,1.08
2022-09-23T15:19:58.395Z,1.15
2022-09-23T15:22:27.345Z,1.90
2022-09-23T15:25:09.175Z,1.20
2022-09-23T15:27:37.098Z,1.60
2022-09-23T15:30:18.643Z,1.23
2022-09-23T15:32:47.535Z,1.30
2022-09-23T15:35:19.568Z,1.50
2022-09-23T15:37:49.891Z,1.52
2022-09-23T15:40:22.040Z,1.58
2022-09-23T15:42:52.297Z,1.00
2022-09-23T15:45:22.408Z,1.60
2022-09-23T15:47:52.252Z,1.50
2022-09-23T15:50:21.693Z,1.37
2022-09-23T15:52:49.621Z,1.43
2022-09-23T15:55:21.875Z,1.90
2022-09-23T15:57:50.285Z,2.40
2022-09-23T16:00:18.597Z,2.47
2022-09-23T16:02:48.554Z,2.47
2022-09-23T16:05:23.614Z,2.90
2022-09-23T16:07:53.332Z,3.00
2022-09-23T16:10:23.386Z,3.10
2022-09-23T16:12:54.748Z,2.77
2022-09-23T16:15:24.783Z,2.57
2022-09-23T16:17:54.681Z,2.50
2022-09-23T16:20:24.335Z,2.37
2022-09-23T16:22:55.947Z,2.60
2022-09-23T16:25:28.311Z,2.47
2022-09-23T16:27:57.205Z,2.17
2022-09-23T16:30:26.587Z,3.00
2022-09-23T16:32:54.815Z,5.17
2022-09-23T16:35:26.906Z,4.00
2022-09-23T16:37:55.944Z,5.67
2022-09-23T16:40:25.203Z,5.63
2022-09-23T16:42:54.898Z,6.20
2022-09-23T16:45:23.358Z,5.90
2022-09-23T16:47:52.833Z,5.47
2022-09-23T16:50:23.766Z,5.00
2022-09-23T16:52:56.325Z,4.70
2022-09-23T16:55:28.424Z,5.00
2022-09-23T16:57:56.670Z,4.87
2022-09-23T17:00:42.304Z,5.37
2022-09-23T17:03:30.969Z,5.57
2022-09-23T17:06:02.452Z,5.07
2022-09-23T17:08:32.599Z,5.97
2022-09-23T17:11:01.484Z,6.73
2022-09-23T17:13:31.077Z,6.67
2022-09-23T17:15:59.073Z,7.47
2022-09-23T17:18:28.319Z,7.70
2022-09-23T17:21:03.061Z,7.80
2022-09-23T17:23:31.849Z,7.30
2022-09-23T17:26:00.409Z,6.63
2022-09-23T17:28:28.807Z,6.73
2022-09-23T17:31:00.637Z,8.60
2022-09-23T17:33:30.035Z,7.83
2022-09-23T17:36:00.186Z,6.97
2022-09-23T17:38:29.801Z,8.40
2022-09-23T17:41:01.213Z,8.43
2022-09-23T17:43:31.450Z,7.03
2022-09-23T17:46:05.300Z,8.47
2022-09-23T17:48:34.948Z,9.97
2022-09-23T17:51:04.767Z,8.07
2022-09-23T17:53:36.036Z,9.93
2022-09-23T17:56:05.905Z,9.93
2022-09-23T17:58:36.345Z,9.97
2022-09-23T18:01:05.093Z,11.47
2022-09-23T18:03:33.448Z,12.17
2022-09-23T18:06:09.297Z,10.80
2022-09-23T18:08:39.279Z,11.70
2022-09-23T18:11:16.008Z,13.00
2022-09-23T18:13:47.591Z,13.70
2022-09-23T18:16:15.686Z,13.13
2022-09-23T18:18:44.654Z,12.10
2022-09-23T18:21:12.639Z,11.10
2022-09-23T18:23:42.272Z,12.57
2022-09-23T18:26:15.440Z,12.33
2022-09-23T18:28:43.812Z,11.23
2022-09-23T18:31:12.385Z,12.23
2022-09-23T18:33:40.581Z,13.80
2022-09-23T18:36:10.066Z,13.10
2022-09-23T18:38:38.061Z,13.40
2022-09-23T18:41:08.178Z,12.87
2022-09-23T18:43:41.293Z,16.53
2022-09-23T18:46:13.530Z,18.07
2022-09-23T18:48:59.729Z,15.00
2022-09-23T18:51:29.522Z,14.70
2022-09-23T18:53:58.620Z,15.33
2022-09-23T18:56:33.623Z,16.53
2022-09-23T18:59:01.863Z,17.90
2022-09-23T19:01:29.993Z,18.13
2022-09-23T19:03:58.976Z,16.73
2022-09-23T19:06:27.619Z,16.97
2022-09-23T19:08:56.237Z,16.30
2022-09-23T19:11:24.923Z,16.73
2022-09-23T19:14:00.386Z,19.53
2022-09-23T19:16:28.675Z,20.43
2022-09-23T19:18:56.679Z,25.03
2022-09-23T19:21:25.141Z,23.43
2022-09-23T19:23:54.708Z,21.87
2022-09-23T19:26:25.047Z,19.40
2022-09-23T19:28:54.650Z,21.90
2022-09-23T19:31:25.586Z,18.80
2022-09-23T19:33:56.885Z,18.90
2022-09-23T19:36:26.811Z,17.63
2022-09-23T19:38:56.071Z,17.97
2022-09-23T19:41:24.699Z,17.30
2022-09-23T19:44:02.396Z,18.70
2022-09-23T19:46:32.485Z,22.20
2022-09-23T19:49:01.675Z,22.63
2022-09-23T19:51:29.630Z,18.00
2022-09-23T19:53:57.645Z,19.80
2022-09-23T19:56:25.696Z,18.07
2022-09-23T19:58:55.763Z,17.30
2022-09-23T20:01:24.802Z,19.10
2022-09-23T20:03:54.928Z,18.07
2022-09-23T20:06:23.814Z,18.27
2022-09-23T20:08:52.034Z,17.60
2022-09-23T20:11:26.160Z,18.47
2022-09-23T20:14:00.920Z,16.00
2022-09-23T20:16:31.948Z,25.53
2022-09-23T20:19:03.147Z,28.13
2022-09-23T20:21:31.298Z,23.90
2022-09-23T20:23:59.329Z,23.67
2022-09-23T20:26:44.713Z,20.57
2022-09-23T20:29:12.779Z,22.70
2022-09-23T20:31:41.196Z,23.07
2022-09-23T20:34:11.171Z,22.77
2022-09-23T20:36:41.354Z,24.57
2022-09-23T20:39:10.566Z,22.17
2022-09-23T20:41:39.663Z,23.87
2022-09-23T20:44:12.347Z,20.73
2022-09-23T20:46:45.267Z,21.37
2022-09-23T20:49:17.755Z,20.07
2022-09-23T20:51:47.780Z,15.87
2022-09-23T20:54:16.432Z,16.03
2022-09-23T20:56:44.425Z,18.77
2022-09-23T20:59:14.968Z,26.10
2022-09-23T21:01:43.581Z,25.07
2022-09-23T21:04:11.632Z,23.63
2022-09-23T21:06:41.117Z,20.77
2022-09-23T21:09:09.131Z,22.03
2022-09-23T21:11:38.023Z,19.73
2022-09-23T21:14:06.186Z,19.97
2022-09-23T21:16:34.334Z,19.43
2022-09-23T21:19:03.832Z,20.63
2022-09-23T21:21:31.896Z,19.27
2022-09-23T21:24:23.867Z,21.00
2022-09-23T21:26:50.480Z,18.73
2022-09-23T21:29:19.128Z,17.70
2022-09-23T21:31:49.533Z,18.03
2022-09-23T21:34:17.785Z,17.43
2022-09-23T21:36:47.992Z,15.10
2022-09-23T21:39:17.425Z,13.43
2022-09-23T21:41:45.415Z,13.73
2022-09-23T21:44:13.427Z,13.00
2022-09-23T21:46:41.584Z,12.87
2022-09-23T21:49:09.800Z,12.83
2022-09-23T21:51:40.619Z,12.27
2022-09-23T21:54:12.647Z,11.47
2022-09-23T21:56:42.586Z,12.60
2022-09-23T21:59:11.248Z,12.20
2022-09-23T22:01:42.043Z,11.80
2022-09-23T22:04:15.337Z,12.47
2022-09-23T22:06:43.530Z,10.87
2022-09-23T22:09:14.427Z,12.63
2022-09-23T22:12:01.892Z,12.00
2022-09-23T22:14:30.642Z,12.40
2022-09-23T22:17:01.431Z,12.33
2022-09-23T22:19:34.816Z,11.83
2022-09-23T22:22:06.663Z,12.27
2022-09-23T22:24:34.658Z,12.77
2022-09-23T22:27:04.020Z,13.13
2022-09-23T22:29:49.309Z,12.10
2022-09-23T22:32:34.838Z,12.93
2022-09-23T22:35:02.857Z,14.03
2022-09-23T22:37:34.155Z,13.43
2022-09-23T22:40:03.199Z,12.67
2022-09-23T22:42:32.546Z,12.80
2022-09-23T22:45:00.636Z,12.40
2022-09-23T22:47:28.664Z,14.30
2022-09-23T22:49:56.677Z,12.87
2022-09-23T22:52:25.187Z,13.97
2022-09-23T22:54:53.828Z,14.73
2022-09-23T22:57:21.857Z,12.47
2022-09-23T22:59:51.162Z,13.40
2022-09-23T23:02:21.846Z,13.50
2022-09-23T23:04:50.742Z,13.07
2022-09-23T23:07:21.527Z,12.63
2022-09-23T23:09:50.793Z,13.27
2022-09-23T23:12:20.082Z,13.07
2022-09-23T23:14:50.198Z,12.03
2022-09-23T23:17:18.818Z,12.83
2022-09-23T23:19:46.987Z,12.07
2022-09-23T23:22:14.974Z,12.47
2022-09-23T23:24:43.066Z,12.90
2022-09-23T23:27:11.051Z,12.83
2022-09-23T23:29:39.050Z,10.87
2022-09-23T23:32:09.763Z,12.30
2022-09-23T23:34:37.736Z,11.70
2022-09-23T23:37:05.794Z,10.87
2022-09-23T23:39:35.138Z,11.20
2022-09-23T23:42:04.778Z,10.73
2022-09-23T23:44:34.436Z,11.10
2022-09-23T23:47:02.809Z,10.70
2022-09-23T23:49:32.357Z,10.37
2022-09-23T23:52:00.245Z,9.67
2022-09-23T23:54:28.134Z,9.93
2022-09-23T23:56:56.105Z,9.90
2022-09-23T23:59:24.533Z,10.20
